createdAt,value
2022-12-02T00:00:09.398Z,0.69
2022-12-02T00:01:09.412Z,0.66
2022-12-02T00:02:09.447Z,0.66
2022-12-02T00:03:09.526Z,0.66
2022-12-02T00:04:09.699Z,0.68
2022-12-02T00:05:09.546Z,0.65
2022-12-02T00:06:09.568Z,0.67
2022-12-02T00:07:09.597Z,0.69
2022-12-02T00:08:09.669Z,0.7
2022-12-02T00:09:09.655Z,0.7
2022-12-02T00:10:09.698Z,0.73
2022-12-02T00:11:09.724Z,0.72
2022-12-02T00:12:09.749Z,0.72
2022-12-02T00:13:09.782Z,0.71
2022-12-02T00:14:09.817Z,0.71
2022-12-02T00:15:09.850Z,0.73
2022-12-02T00:16:09.937Z,0.73
2022-12-02T00:17:09.915Z,0.72
2022-12-02T00:18:09.940Z,0.75
2022-12-02T00:19:09.973Z,0.75
2022-12-02T00:20:10.008Z,0.76
2022-12-02T00:21:10.037Z,0.76
2022-12-02T00:22:10.055Z,0.75
2022-12-02T00:23:10.092Z,0.75
2022-12-02T00:24:10.126Z,0.75
2022-12-02T00:25:10.156Z,0.76
2022-12-02T00:26:10.206Z,0.76
2022-12-02T00:27:10.210Z,0.77
2022-12-02T00:28:10.247Z,0.77
2022-12-02T00:29:10.278Z,0.77
2022-12-02T00:30:10.318Z,0.79
2022-12-02T00:31:15.429Z,0.79
2022-12-02T00:32:11.461Z,0.81
2022-12-02T00:33:10.464Z,0.8
2022-12-02T00:34:10.491Z,0.8
2022-12-02T00:35:10.513Z,0.8
2022-12-02T00:36:10.536Z,0.8
2022-12-02T00:37:10.571Z,0.8
2022-12-02T00:38:10.593Z,0.79
2022-12-02T00:39:10.622Z,0.81
2022-12-02T00:40:10.636Z,0.81
2022-12-02T00:41:10.661Z,0.81
2022-12-02T00:42:10.691Z,0.86
2022-12-02T00:43:10.732Z,0.88
2022-12-02T00:44:10.748Z,0.88
2022-12-02T00:45:10.791Z,0.9
2022-12-02T00:46:10.868Z,0.88
2022-12-02T00:47:10.849Z,0.89
2022-12-02T00:48:10.892Z,0.89
2022-12-02T00:49:10.899Z,0.89
2022-12-02T00:50:10.940Z,0.89
2022-12-02T00:51:10.961Z,0.89
2022-12-02T00:52:10.981Z,0.88
2022-12-02T00:53:11.036Z,0.88
2022-12-02T00:54:11.050Z,0.88
2022-12-02T00:55:11.077Z,0.89
2022-12-02T00:56:11.112Z,0.88
2022-12-02T00:57:11.142Z,0.88
2022-12-02T00:58:11.177Z,0.88
2022-12-02T00:59:11.210Z,0.87
2022-12-02T01:00:11.243Z,0.88
2022-12-02T01:01:11.334Z,0.89
2022-12-02T01:02:11.322Z,0.86
2022-12-02T01:03:11.363Z,0.86
2022-12-02T01:04:11.359Z,0.87
2022-12-02T01:05:11.381Z,0.87
2022-12-02T01:06:11.400Z,0.87
2022-12-02T01:07:11.432Z,0.9
2022-12-02T01:08:11.557Z,0.87
2022-12-02T01:09:11.511Z,0.88
2022-12-02T01:10:11.522Z,0.87
2022-12-02T01:11:11.553Z,0.88
2022-12-02T01:12:11.579Z,0.88
2022-12-02T01:13:11.619Z,0.88
2022-12-02T01:14:11.657Z,0.87
2022-12-02T01:15:11.673Z,0.87
2022-12-02T01:16:11.729Z,0.85
2022-12-02T01:17:11.736Z,0.86
2022-12-02T01:18:11.751Z,0.87
2022-12-02T01:19:11.782Z,0.87
2022-12-02T01:20:11.806Z,0.87
2022-12-02T01:21:11.845Z,0.87
2022-12-02T01:22:11.895Z,0.89
2022-12-02T01:23:11.897Z,0.89
2022-12-02T01:24:11.935Z,0.89
2022-12-02T01:25:11.961Z,0.9
2022-12-02T01:26:11.985Z,0.89
2022-12-02T01:27:12.047Z,0.89
2022-12-02T01:28:12.050Z,0.9
2022-12-02T01:29:12.090Z,0.93
2022-12-02T01:30:12.113Z,0.93
2022-12-02T01:31:12.263Z,0.93
2022-12-02T01:32:12.257Z,0.93
2022-12-02T01:33:12.216Z,0.94
2022-12-02T01:34:12.248Z,0.94
2022-12-02T01:35:12.278Z,0.96
2022-12-02T01:36:12.304Z,0.95
2022-12-02T01:37:12.335Z,0.95
2022-12-02T01:38:12.390Z,0.96
2022-12-02T01:39:12.397Z,0.95
2022-12-02T01:40:12.430Z,0.93
2022-12-02T01:41:12.465Z,0.94
2022-12-02T01:42:12.502Z,0.94
2022-12-02T01:43:12.543Z,0.94
2022-12-02T01:44:12.567Z,0.95
2022-12-02T01:45:12.594Z,0.93
2022-12-02T01:46:12.696Z,0.93
2022-12-02T01:47:12.653Z,0.93
2022-12-02T01:48:12.727Z,0.93
2022-12-02T01:49:12.730Z,0.94
2022-12-02T01:50:12.768Z,0.94
2022-12-02T01:51:12.819Z,0.95
2022-12-02T01:52:12.811Z,0.95
2022-12-02T01:53:12.859Z,0.95
2022-12-02T01:54:12.891Z,0.93
2022-12-02T01:55:12.922Z,0.93
2022-12-02T01:56:12.961Z,0.93
2022-12-02T01:57:12.985Z,0.93
2022-12-02T01:58:13.016Z,0.94
2022-12-02T01:59:13.045Z,0.94
2022-12-02T02:00:13.071Z,0.94
2022-12-02T02:01:13.187Z,0.95
2022-12-02T02:02:13.207Z,0.92
2022-12-02T02:03:13.175Z,0.95
2022-12-02T02:04:13.236Z,0.93
2022-12-02T02:05:13.235Z,0.93
2022-12-02T02:06:13.267Z,0.91
2022-12-02T02:07:13.302Z,0.92
2022-12-02T02:08:13.329Z,0.93
2022-12-02T02:09:13.379Z,0.94
2022-12-02T02:10:13.394Z,0.93
2022-12-02T02:11:13.427Z,0.93
2022-12-02T02:12:13.461Z,0.93
2022-12-02T02:13:13.489Z,0.94
2022-12-02T02:14:13.539Z,0.96
2022-12-02T02:15:13.553Z,0.96
2022-12-02T02:16:13.648Z,0.95
2022-12-02T02:17:13.608Z,0.96
2022-12-02T02:18:13.638Z,0.96
2022-12-02T02:19:13.681Z,0.94
2022-12-02T02:20:13.684Z,0.94
2022-12-02T02:21:13.725Z,0.94
2022-12-02T02:22:13.757Z,0.95
2022-12-02T02:23:13.781Z,0.95
2022-12-02T02:24:13.827Z,0.96
2022-12-02T02:25:18.737Z,0.96
2022-12-02T02:26:13.893Z,0.94
2022-12-02T02:27:13.929Z,0.94
2022-12-02T02:28:13.963Z,0.95
2022-12-02T02:29:13.990Z,0.95
2022-12-02T02:30:14.026Z,0.95
2022-12-02T02:31:14.137Z,0.95
2022-12-02T02:32:14.094Z,0.96
2022-12-02T02:33:14.112Z,0.96
2022-12-02T02:34:14.142Z,0.96
2022-12-02T02:35:14.207Z,0.96
2022-12-02T02:36:14.194Z,0.96
2022-12-02T02:37:14.238Z,0.96
2022-12-02T02:38:14.283Z,0.96
2022-12-02T02:39:14.307Z,0.97
2022-12-02T02:40:14.354Z,0.97
2022-12-02T02:41:14.371Z,0.97
2022-12-02T02:42:14.405Z,0.97
2022-12-02T02:43:14.441Z,0.97
2022-12-02T02:44:14.486Z,0.97
2022-12-02T02:45:14.494Z,0.97
2022-12-02T02:46:14.582Z,0.95
2022-12-02T02:47:14.550Z,0.96
2022-12-02T02:48:14.573Z,0.95
2022-12-02T02:49:14.612Z,0.95
2022-12-02T02:50:14.636Z,0.95
2022-12-02T02:51:14.685Z,0.95
2022-12-02T02:52:14.690Z,0.96
2022-12-02T02:53:14.720Z,0.96
2022-12-02T02:54:14.753Z,0.96
2022-12-02T02:55:14.779Z,0.96
2022-12-02T02:56:14.902Z,0.97
2022-12-02T02:57:14.839Z,0.97
2022-12-02T02:58:14.875Z,0.97
2022-12-02T02:59:14.905Z,0.97
2022-12-02T03:00:14.931Z,0.97
2022-12-02T03:01:15.074Z,0.97
2022-12-02T03:02:15.053Z,0.98
2022-12-02T03:03:15.024Z,0.98
2022-12-02T03:04:15.053Z,0.98
2022-12-02T03:05:15.083Z,0.97
2022-12-02T03:06:15.141Z,0.97
2022-12-02T03:07:15.173Z,0.97
2022-12-02T03:08:15.204Z,0.97
2022-12-02T03:09:15.240Z,0.97
2022-12-02T03:10:15.268Z,0.97
2022-12-02T03:11:15.323Z,0.97
2022-12-02T03:12:15.346Z,0.97
2022-12-02T03:13:15.362Z,0.97
2022-12-02T03:14:15.895Z,0.97
2022-12-02T03:15:15.415Z,0.98
2022-12-02T03:16:15.481Z,1
2022-12-02T03:17:15.523Z,1
2022-12-02T03:18:15.504Z,0.98
2022-12-02T03:19:15.548Z,0.98
2022-12-02T03:20:15.599Z,0.98
2022-12-02T03:21:15.589Z,1
2022-12-02T03:22:15.621Z,0.99
2022-12-02T03:23:15.661Z,1
2022-12-02T03:24:15.713Z,0.98
2022-12-02T03:25:15.711Z,0.97
2022-12-02T03:26:15.752Z,0.98
2022-12-02T03:27:15.777Z,0.98
2022-12-02T03:28:15.820Z,0.98
2022-12-02T03:29:15.861Z,0.98
2022-12-02T03:30:18.445Z,0.98
2022-12-02T03:31:16.048Z,0.98
2022-12-02T03:32:15.967Z,0.99
2022-12-02T03:33:15.969Z,0.99
2022-12-02T03:34:16.013Z,0.99
2022-12-02T03:35:16.018Z,0.99
2022-12-02T03:36:16.059Z,0.99
2022-12-02T03:37:16.104Z,0.99
2022-12-02T03:38:16.100Z,1.01
2022-12-02T03:39:16.147Z,1.01
2022-12-02T03:40:16.156Z,1.01
2022-12-02T03:41:16.195Z,1
2022-12-02T03:42:16.214Z,1
2022-12-02T03:43:16.248Z,1
2022-12-02T03:44:16.277Z,1.02
2022-12-02T03:45:16.302Z,1.02
2022-12-02T03:46:16.383Z,1.02
2022-12-02T03:47:16.361Z,1.01
2022-12-02T03:48:16.401Z,1.01
2022-12-02T03:49:16.425Z,1.01
2022-12-02T03:50:16.469Z,1.01
2022-12-02T03:51:16.490Z,1.01
2022-12-02T03:52:16.523Z,1.01
2022-12-02T03:53:16.556Z,1.01
2022-12-02T03:54:16.586Z,1
2022-12-02T03:55:16.624Z,1
2022-12-02T03:56:16.641Z,1
2022-12-02T03:57:16.677Z,1
2022-12-02T03:58:16.698Z,1
2022-12-02T03:59:16.723Z,1
2022-12-02T04:00:16.776Z,1
2022-12-02T04:01:16.821Z,1
2022-12-02T04:02:16.916Z,1
2022-12-02T04:03:16.851Z,0.98
2022-12-02T04:04:16.889Z,0.98
2022-12-02T04:05:16.933Z,0.99
2022-12-02T04:06:16.951Z,0.98
2022-12-02T04:07:16.976Z,0.96
2022-12-02T04:08:17.013Z,0.97
2022-12-02T04:09:17.048Z,0.97
2022-12-02T04:10:17.083Z,0.98
2022-12-02T04:11:17.101Z,0.98
2022-12-02T04:12:17.137Z,0.97
2022-12-02T04:13:17.166Z,0.94
2022-12-02T04:14:17.202Z,0.97
2022-12-02T04:15:17.239Z,0.93
2022-12-02T04:16:17.360Z,0.92
2022-12-02T04:17:17.328Z,0.92
2022-12-02T04:18:17.353Z,0.9
2022-12-02T04:19:17.377Z,0.9
2022-12-02T04:20:17.414Z,0.89
2022-12-02T04:21:17.455Z,0.87
2022-12-02T04:22:17.474Z,0.89
2022-12-02T04:23:17.511Z,0.87
2022-12-02T04:24:17.541Z,0.88
2022-12-02T04:25:17.576Z,0.87
2022-12-02T04:26:17.627Z,0.89
2022-12-02T04:27:17.642Z,0.89
2022-12-02T04:28:17.676Z,0.89
2022-12-02T04:29:17.701Z,0.87
2022-12-02T04:30:17.730Z,0.87
2022-12-02T04:31:17.810Z,0.88
2022-12-02T04:32:17.781Z,0.88
2022-12-02T04:33:17.811Z,0.88
2022-12-02T04:34:17.837Z,0.88
2022-12-02T04:35:17.876Z,0.88
2022-12-02T04:36:17.909Z,0.86
2022-12-02T04:37:17.947Z,0.86
2022-12-02T04:38:17.966Z,0.87
2022-12-02T04:39:18.002Z,0.87
2022-12-02T04:40:18.023Z,0.87
2022-12-02T04:41:18.051Z,0.87
2022-12-02T04:42:18.108Z,0.87
2022-12-02T04:43:18.126Z,0.87
2022-12-02T04:44:18.470Z,0.87
2022-12-02T04:45:18.182Z,0.87
2022-12-02T04:46:18.282Z,0.87
2022-12-02T04:47:18.269Z,0.89
2022-12-02T04:48:18.272Z,0.89
2022-12-02T04:49:18.298Z,0.89
2022-12-02T04:50:18.329Z,0.88
2022-12-02T04:51:18.366Z,0.88
2022-12-02T04:52:18.415Z,0.87
2022-12-02T04:53:18.437Z,0.87
2022-12-02T04:54:18.467Z,0.87
2022-12-02T04:55:18.483Z,0.87
2022-12-02T04:56:18.532Z,0.87
2022-12-02T04:57:18.578Z,0.87
2022-12-02T04:58:18.576Z,0.88
2022-12-02T04:59:18.605Z,0.87
2022-12-02T05:00:18.640Z,0.89
2022-12-02T05:01:18.661Z,0.89
2022-12-02T05:02:18.709Z,0.89
2022-12-02T05:03:18.805Z,0.87
2022-12-02T05:04:18.793Z,0.87
2022-12-02T05:05:18.785Z,0.87
2022-12-02T05:06:18.812Z,0.87
2022-12-02T05:07:18.825Z,0.87
2022-12-02T05:08:18.871Z,0.87
2022-12-02T05:09:18.899Z,0.88
2022-12-02T05:10:18.922Z,0.88
2022-12-02T05:11:18.955Z,0.88
2022-12-02T05:12:18.981Z,0.86
2022-12-02T05:13:19.017Z,0.86
2022-12-02T05:14:19.026Z,0.86
2022-12-02T05:15:19.062Z,0.87
2022-12-02T05:16:19.258Z,0.87
2022-12-02T05:17:19.118Z,0.87
2022-12-02T05:18:19.153Z,0.86
2022-12-02T05:19:19.182Z,0.89
2022-12-02T05:20:19.212Z,0.86
2022-12-02T05:21:19.246Z,0.86
2022-12-02T05:22:19.293Z,0.86
2022-12-02T05:23:19.353Z,0.87
2022-12-02T05:24:19.347Z,0.87
2022-12-02T05:25:19.387Z,0.87
2022-12-02T05:26:19.415Z,0.86
2022-12-02T05:27:19.449Z,0.86
2022-12-02T05:28:19.505Z,0.87
2022-12-02T05:29:19.524Z,0.87
2022-12-02T05:30:19.560Z,0.86
2022-12-02T05:31:19.635Z,0.86
2022-12-02T05:32:19.618Z,0.86
2022-12-02T05:33:19.653Z,0.87
2022-12-02T05:34:19.742Z,0.86
2022-12-02T05:35:19.708Z,0.86
2022-12-02T05:36:19.742Z,0.86
2022-12-02T05:37:19.773Z,0.87
2022-12-02T05:38:19.801Z,0.86
2022-12-02T05:39:19.850Z,0.86
2022-12-02T05:40:19.866Z,0.86
2022-12-02T05:41:19.913Z,0.86
2022-12-02T05:42:19.926Z,0.86
2022-12-02T05:43:19.946Z,0.85
2022-12-02T05:44:19.988Z,0.86
2022-12-02T05:45:20.038Z,0.85
2022-12-02T05:46:20.137Z,0.85
2022-12-02T05:47:20.074Z,0.85
2022-12-02T05:48:20.216Z,0.84
2022-12-02T05:49:20.131Z,0.87
2022-12-02T05:50:20.184Z,0.85
2022-12-02T05:51:20.196Z,0.87
2022-12-02T05:52:20.227Z,0.87
2022-12-02T05:53:20.251Z,0.87
2022-12-02T05:54:20.280Z,0.86
2022-12-02T05:55:20.331Z,0.86
2022-12-02T05:56:20.352Z,0.86
2022-12-02T05:57:25.971Z,0.86
2022-12-02T05:58:20.412Z,0.86
2022-12-02T05:59:20.455Z,0.85
2022-12-02T06:00:20.488Z,0.85
2022-12-02T06:01:20.533Z,0.85
2022-12-02T06:02:20.660Z,0.88
2022-12-02T06:03:20.773Z,0.88
2022-12-02T06:04:20.609Z,0.87
2022-12-02T06:05:20.651Z,0.87
2022-12-02T06:06:20.671Z,0.87
2022-12-02T06:07:20.699Z,0.87
2022-12-02T06:08:20.721Z,0.87
2022-12-02T06:09:20.756Z,0.87
2022-12-02T06:10:20.789Z,0.82
2022-12-02T06:11:20.830Z,0.82
2022-12-02T06:12:20.853Z,0.82
2022-12-02T06:13:20.890Z,0.84
2022-12-02T06:14:20.929Z,0.81
2022-12-02T06:15:20.953Z,0.82
2022-12-02T06:16:21.047Z,0.82
2022-12-02T06:17:21.013Z,0.81
2022-12-02T06:18:21.039Z,0.81
2022-12-02T06:19:21.074Z,0.81
2022-12-02T06:20:21.093Z,0.81
2022-12-02T06:21:21.128Z,0.83
2022-12-02T06:22:21.177Z,0.83
2022-12-02T06:23:21.195Z,0.83
2022-12-02T06:24:21.218Z,0.83
2022-12-02T06:25:21.250Z,0.83
2022-12-02T06:26:21.281Z,0.82
2022-12-02T06:27:21.340Z,0.82
2022-12-02T06:28:21.351Z,0.82
2022-12-02T06:29:21.376Z,0.82
2022-12-02T06:30:21.439Z,0.8
2022-12-02T06:31:21.554Z,0.8
2022-12-02T06:32:21.490Z,0.8
2022-12-02T06:33:22.862Z,0.8
2022-12-02T06:34:21.547Z,0.8
2022-12-02T06:35:21.571Z,0.8
2022-12-02T06:36:21.601Z,0.8
2022-12-02T06:37:21.637Z,0.8
2022-12-02T06:38:21.662Z,0.83
2022-12-02T06:39:21.688Z,0.8
2022-12-02T06:40:29.677Z,0.8
2022-12-02T06:41:21.753Z,0.8
2022-12-02T06:42:21.778Z,0.82
2022-12-02T06:43:21.820Z,0.82
2022-12-02T06:44:21.847Z,0.82
2022-12-02T06:45:28.734Z,0.81
2022-12-02T06:46:21.956Z,0.81
2022-12-02T06:47:21.937Z,0.81
2022-12-02T06:48:21.965Z,0.81
2022-12-02T06:49:21.997Z,0.81
2022-12-02T06:50:22.025Z,0.8
2022-12-02T06:51:22.043Z,0.8
2022-12-02T06:52:22.078Z,0.8
2022-12-02T06:53:22.112Z,0.8
2022-12-02T06:54:22.133Z,0.8
2022-12-02T06:55:22.172Z,0.79
2022-12-02T06:56:22.202Z,0.8
2022-12-02T06:57:22.236Z,0.79
2022-12-02T06:58:22.273Z,0.8
2022-12-02T06:59:22.293Z,0.8
2022-12-02T07:00:22.330Z,0.84
2022-12-02T07:01:22.409Z,0.84
2022-12-02T07:02:22.471Z,0.84
2022-12-02T07:03:22.425Z,0.84
2022-12-02T07:04:22.465Z,0.84
2022-12-02T07:05:22.488Z,0.84
2022-12-02T07:06:22.528Z,0.83
2022-12-02T07:07:22.632Z,0.83
2022-12-02T07:08:22.579Z,0.83
2022-12-02T07:09:22.602Z,0.83
2022-12-02T07:10:22.626Z,0.82
2022-12-02T07:11:22.678Z,0.82
2022-12-02T07:12:22.688Z,0.82
2022-12-02T07:13:22.723Z,0.86
2022-12-02T07:14:22.741Z,0.87
2022-12-02T07:15:22.765Z,0.87
2022-12-02T07:16:22.891Z,0.87
2022-12-02T07:17:22.835Z,0.87
2022-12-02T07:18:22.861Z,0.87
2022-12-02T07:19:22.888Z,0.87
2022-12-02T07:20:22.918Z,0.86
2022-12-02T07:21:23.004Z,0.86
2022-12-02T07:22:22.972Z,0.85
2022-12-02T07:23:23.006Z,0.84
2022-12-02T07:24:23.221Z,0.81
2022-12-02T07:25:23.066Z,0.81
2022-12-02T07:26:23.107Z,0.8
2022-12-02T07:27:23.133Z,0.8
2022-12-02T07:28:23.161Z,0.83
2022-12-02T07:29:23.189Z,0.86
2022-12-02T07:30:23.281Z,0.87
2022-12-02T07:31:23.319Z,0.87
2022-12-02T07:32:23.277Z,0.84
2022-12-02T07:33:23.307Z,0.83
2022-12-02T07:34:23.338Z,0.84
2022-12-02T07:35:23.368Z,0.83
2022-12-02T07:36:23.418Z,0.82
2022-12-02T07:37:23.446Z,0.88
2022-12-02T07:38:42.903Z,0.9
2022-12-02T07:39:23.519Z,0.9
2022-12-02T07:40:23.535Z,0.89
2022-12-02T07:41:23.557Z,0.88
2022-12-02T07:42:23.610Z,0.88
2022-12-02T07:43:23.644Z,0.88
2022-12-02T07:44:23.661Z,0.87
2022-12-02T07:45:23.688Z,0.88
2022-12-02T07:46:23.806Z,0.88
2022-12-02T07:47:23.775Z,0.88
2022-12-02T07:48:23.769Z,0.88
2022-12-02T07:49:23.804Z,0.87
2022-12-02T07:50:23.829Z,0.86
2022-12-02T07:51:23.866Z,0.87
2022-12-02T07:52:23.917Z,0.87
2022-12-02T07:53:23.937Z,0.87
2022-12-02T07:54:23.958Z,0.87
2022-12-02T07:55:26.443Z,0.87
2022-12-02T07:56:24.012Z,0.87
2022-12-02T07:57:24.048Z,0.86
2022-12-02T07:58:37.090Z,0.87
2022-12-02T07:59:24.119Z,0.87
2022-12-02T08:00:24.131Z,0.86
2022-12-02T08:01:24.262Z,0.86
2022-12-02T08:02:24.198Z,0.86
2022-12-02T08:03:24.228Z,0.86
2022-12-02T08:04:24.311Z,0.88
2022-12-02T08:05:24.291Z,0.85
2022-12-02T08:06:24.309Z,0.85
2022-12-02T08:07:24.377Z,0.85
2022-12-02T08:08:24.364Z,0.86
2022-12-02T08:09:24.410Z,0.84
2022-12-02T08:10:24.635Z,0.84
2022-12-02T08:11:24.670Z,0.84
2022-12-02T08:12:24.718Z,0.84
2022-12-02T08:13:24.762Z,0.84
2022-12-02T08:14:24.774Z,0.84
2022-12-02T08:15:24.811Z,0.84
2022-12-02T08:16:24.940Z,0.83
2022-12-02T08:17:24.881Z,0.84
2022-12-02T08:18:24.931Z,0.84
2022-12-02T08:19:24.929Z,0.84
2022-12-02T08:20:24.974Z,0.84
2022-12-02T08:21:24.974Z,0.85
2022-12-02T08:22:24.996Z,0.85
2022-12-02T08:23:25.046Z,0.86
2022-12-02T08:24:25.095Z,0.86
2022-12-02T08:25:25.115Z,0.84
2022-12-02T08:26:25.383Z,0.87
2022-12-02T08:27:25.146Z,0.87
2022-12-02T08:28:25.176Z,0.86
2022-12-02T08:29:25.221Z,0.87
2022-12-02T08:30:25.306Z,0.87
2022-12-02T08:31:25.449Z,0.88
2022-12-02T08:32:25.300Z,0.88
2022-12-02T08:33:25.334Z,0.87
2022-12-02T08:34:25.366Z,0.87
2022-12-02T08:35:25.397Z,0.87
2022-12-02T08:36:25.414Z,0.89
2022-12-02T08:37:25.449Z,0.89
2022-12-02T08:38:25.475Z,0.89
2022-12-02T08:39:25.525Z,0.91
2022-12-02T08:40:25.550Z,0.91
2022-12-02T08:41:25.563Z,0.91
2022-12-02T08:42:25.598Z,0.96
2022-12-02T08:43:25.624Z,0.96
2022-12-02T08:44:25.657Z,0.96
2022-12-02T08:45:25.667Z,0.93
2022-12-02T08:46:25.721Z,0.92
2022-12-02T08:47:25.734Z,0.92
2022-12-02T08:48:25.755Z,0.93
2022-12-02T08:49:08.383Z,0.91
2022-12-02T08:50:25.863Z,0.92
2022-12-02T08:51:25.876Z,0.93
2022-12-02T08:52:25.905Z,0.95
2022-12-02T08:53:25.941Z,0.95
2022-12-02T08:54:25.966Z,0.95
2022-12-02T08:55:25.992Z,0.94
2022-12-02T08:56:26.036Z,0.92
2022-12-02T08:57:26.059Z,0.94
2022-12-02T08:58:26.088Z,0.93
2022-12-02T08:59:26.128Z,0.93
2022-12-02T09:00:26.169Z,0.95
2022-12-02T09:01:26.255Z,0.95
2022-12-02T09:02:26.256Z,0.95
2022-12-02T09:03:26.253Z,0.94
2022-12-02T09:04:26.292Z,0.97
2022-12-02T09:05:26.319Z,0.97
2022-12-02T09:06:26.343Z,0.98
2022-12-02T09:07:26.438Z,0.98
2022-12-02T09:08:26.490Z,0.97
2022-12-02T09:09:26.451Z,0.97
2022-12-02T09:10:26.523Z,0.96
2022-12-02T09:11:26.504Z,0.97
2022-12-02T09:12:26.531Z,0.97
2022-12-02T09:13:26.563Z,0.98
2022-12-02T09:14:26.596Z,0.99
2022-12-02T09:15:26.646Z,1.01
2022-12-02T09:16:26.733Z,1.01
2022-12-02T09:17:26.703Z,1.01
2022-12-02T09:18:26.722Z,1.01
2022-12-02T09:19:26.753Z,1.01
2022-12-02T09:20:11.132Z,1
2022-12-02T09:21:11.150Z,1
2022-12-02T09:22:34.818Z,1.01
2022-12-02T09:23:34.851Z,1.03
2022-12-02T09:24:34.882Z,1.03
2022-12-02T09:25:34.929Z,1.03
2022-12-02T09:26:34.944Z,1.03
2022-12-02T09:27:34.983Z,1.03
2022-12-02T09:28:35.015Z,1.03
2022-12-02T09:29:35.059Z,1.05
2022-12-02T09:30:35.088Z,1.05
2022-12-02T09:31:35.144Z,1.04
2022-12-02T09:32:35.140Z,1.04
2022-12-02T09:33:35.175Z,1.11
2022-12-02T09:34:03.169Z,1.15
2022-12-02T09:35:20.410Z,1.14
2022-12-02T09:36:20.432Z,1.13
2022-12-02T09:37:20.457Z,1.13
2022-12-02T09:39:11.301Z,1.12
2022-12-02T09:40:11.343Z,1.11
2022-12-02T09:41:11.458Z,1.11
2022-12-02T09:42:11.506Z,1.09
2022-12-02T09:43:11.525Z,1.1
2022-12-02T09:44:11.560Z,1.12
2022-12-02T09:45:11.597Z,1.09
2022-12-02T09:46:11.696Z,1.09
2022-12-02T09:47:11.664Z,1.08
2022-12-02T09:48:11.703Z,1.09
2022-12-02T09:49:11.730Z,1.11
2022-12-02T09:51:14.273Z,1.11
2022-12-02T09:52:25.740Z,1.09
2022-12-02T09:53:22.242Z,1.1
2022-12-02T09:54:40.816Z,1.09
2022-12-02T09:55:40.964Z,1.09
2022-12-02T09:56:40.893Z,1.08
2022-12-02T09:57:41.020Z,1.09
2022-12-02T09:58:40.994Z,1.1
2022-12-02T09:59:41.018Z,1.1
2022-12-02T10:02:44.719Z,1.08
2022-12-02T10:03:44.607Z,1.07
2022-12-02T10:04:44.640Z,1.07
2022-12-02T10:05:44.681Z,1.07
2022-12-02T10:06:44.712Z,1.07
2022-12-02T10:07:44.827Z,1.07
2022-12-02T10:08:44.774Z,1.08
2022-12-02T10:09:44.856Z,1.05
2022-12-02T10:11:17.166Z,1.05
2022-12-02T10:12:17.201Z,1.06
2022-12-02T10:13:51.989Z,1.03
2022-12-02T10:15:23.304Z,1.04
2022-12-02T10:16:23.495Z,1.05
2022-12-02T10:17:41.477Z,1.02
2022-12-02T10:18:41.509Z,1.03
2022-12-02T10:19:41.636Z,1.05
2022-12-02T10:20:41.684Z,1.05
2022-12-02T10:21:41.721Z,1.04
2022-12-02T10:22:41.744Z,1.02
2022-12-02T10:23:41.764Z,1.05
2022-12-02T10:24:41.802Z,1.06
2022-12-02T10:25:41.842Z,1.05
2022-12-02T10:26:41.872Z,1.05
2022-12-02T10:27:41.899Z,1.05
2022-12-02T10:28:42.052Z,1.05
2022-12-02T10:29:43.492Z,1.07
2022-12-02T10:30:42.112Z,1.05
2022-12-02T10:31:42.173Z,1.06
2022-12-02T10:32:42.175Z,1.05
2022-12-02T10:33:42.205Z,1.06
2022-12-02T10:34:42.238Z,1.07
2022-12-02T10:35:42.272Z,1.08
2022-12-02T10:36:42.300Z,1.07
2022-12-02T10:37:42.323Z,1.08
2022-12-02T10:38:42.364Z,1.08
2022-12-02T10:39:42.398Z,1.08
2022-12-02T10:40:42.407Z,1.09
2022-12-02T10:41:42.450Z,1.09
2022-12-02T10:42:42.470Z,1.1
2022-12-02T10:43:42.489Z,1.09
2022-12-02T10:44:42.552Z,1.09
2022-12-02T10:45:42.561Z,1.09
2022-12-02T10:47:12.855Z,1.09
2022-12-02T10:48:12.830Z,1.1
2022-12-02T10:49:52.515Z,1.09
2022-12-02T10:51:03.141Z,1.09
2022-12-02T10:53:20.168Z,1.06
2022-12-02T10:54:54.368Z,1.03
2022-12-02T10:56:46.511Z,1.04
2022-12-02T10:58:45.921Z,1.03
2022-12-02T10:59:46.147Z,1.04
2022-12-02T11:00:46.241Z,1.04
2022-12-02T11:02:36.774Z,1.04
2022-12-02T11:03:36.697Z,1.04
2022-12-02T11:04:36.740Z,1.04
2022-12-02T11:05:36.761Z,1.03
2022-12-02T11:06:36.797Z,1.03
2022-12-02T11:09:31.558Z,1.04
2022-12-02T11:10:01.073Z,1.05
2022-12-02T11:11:01.172Z,1.03
2022-12-02T11:12:01.192Z,1.01
2022-12-02T11:13:01.232Z,1.01
2022-12-02T11:14:01.253Z,1.01
2022-12-02T11:15:01.319Z,1.03
2022-12-02T11:16:01.374Z,1.04
2022-12-02T11:17:01.386Z,1.04
2022-12-02T11:18:01.386Z,1.04
2022-12-02T11:19:01.410Z,1.05
2022-12-02T11:20:01.447Z,1.05
2022-12-02T11:22:05.043Z,1.05
2022-12-02T11:23:13.886Z,1.02
2022-12-02T11:24:25.462Z,1.02
2022-12-02T11:25:43.225Z,1.02
2022-12-02T11:26:43.246Z,1.01
2022-12-02T11:27:43.293Z,1.01
2022-12-02T11:29:32.987Z,1.01
2022-12-02T11:30:33.025Z,1.01
2022-12-02T11:31:33.116Z,0.99
2022-12-02T11:32:33.060Z,0.98
2022-12-02T11:33:33.087Z,0.97
2022-12-02T11:34:53.946Z,0.97
2022-12-02T11:35:33.162Z,0.99
2022-12-02T11:36:33.188Z,0.98
2022-12-02T11:37:33.217Z,0.98
2022-12-02T11:38:33.234Z,0.97
2022-12-02T11:39:33.267Z,0.96
2022-12-02T11:40:33.288Z,0.96
2022-12-02T11:41:33.329Z,0.94
2022-12-02T11:42:33.355Z,0.94
2022-12-02T11:43:33.399Z,0.95
2022-12-02T11:44:33.414Z,0.95
2022-12-02T11:45:33.535Z,0.96
2022-12-02T11:46:33.526Z,0.97
2022-12-02T11:47:33.522Z,0.97
2022-12-02T11:48:33.557Z,0.98
2022-12-02T11:49:33.581Z,0.98
2022-12-02T11:50:33.612Z,0.97
2022-12-02T11:51:33.659Z,0.96
2022-12-02T11:52:33.671Z,0.95
2022-12-02T11:53:33.695Z,0.94
2022-12-02T11:54:33.733Z,0.95
2022-12-02T11:55:33.764Z,0.94
2022-12-02T11:56:33.804Z,0.91
2022-12-02T11:57:33.815Z,0.91
2022-12-02T11:58:33.868Z,0.91
2022-12-02T11:59:33.890Z,0.9
2022-12-02T12:00:37.894Z,0.9
2022-12-02T12:01:33.998Z,0.91
2022-12-02T12:02:34.085Z,0.92
2022-12-02T12:03:34.135Z,0.93
2022-12-02T12:04:34.033Z,0.93
2022-12-02T12:05:34.065Z,0.93
2022-12-02T12:06:34.115Z,0.94
2022-12-02T12:07:34.228Z,0.95
2022-12-02T12:08:34.183Z,0.98
2022-12-02T12:09:34.208Z,1.02
2022-12-02T12:10:34.253Z,1.01
2022-12-02T12:11:34.268Z,1
2022-12-02T12:12:34.323Z,0.98
2022-12-02T12:13:37.229Z,0.98
2022-12-02T12:14:34.359Z,0.97
2022-12-02T12:15:34.399Z,0.97
2022-12-02T12:16:34.508Z,0.98
2022-12-02T12:17:34.540Z,0.98
2022-12-02T12:18:34.628Z,0.99
2022-12-02T12:19:34.518Z,1
2022-12-02T12:20:34.548Z,1
2022-12-02T12:21:34.588Z,0.99
2022-12-02T12:22:34.639Z,0.97
2022-12-02T12:23:34.647Z,0.96
2022-12-02T12:24:34.715Z,0.96
2022-12-02T12:25:34.701Z,0.9
2022-12-02T12:26:34.730Z,0.91
2022-12-02T12:27:34.755Z,0.88
2022-12-02T12:28:34.774Z,0.88
2022-12-02T12:29:34.817Z,0.88
2022-12-02T12:30:35.061Z,0.89
2022-12-02T12:31:38.596Z,0.94
2022-12-02T12:32:35.086Z,0.93
2022-12-02T12:33:35.116Z,0.97
2022-12-02T12:34:35.148Z,0.92
2022-12-02T12:35:35.167Z,0.92
2022-12-02T12:36:35.203Z,0.92
2022-12-02T12:37:35.251Z,0.97
2022-12-02T12:38:35.288Z,0.96
2022-12-02T12:39:35.335Z,0.91
2022-12-02T12:40:35.340Z,0.9
2022-12-02T12:41:59.162Z,0.9
2022-12-02T12:42:35.414Z,0.88
2022-12-02T12:43:35.428Z,0.88
2022-12-02T12:44:35.455Z,0.88
2022-12-02T12:45:35.479Z,0.88
2022-12-02T12:46:35.640Z,0.87
2022-12-02T12:47:35.531Z,0.88
2022-12-02T12:48:35.564Z,0.87
2022-12-02T12:49:35.643Z,0.88
2022-12-02T12:50:35.633Z,0.88
2022-12-02T12:51:35.649Z,0.88
2022-12-02T12:52:35.681Z,0.88
2022-12-02T12:53:35.709Z,0.86
2022-12-02T12:54:35.742Z,0.86
2022-12-02T12:55:35.799Z,0.86
2022-12-02T12:56:35.791Z,0.86
2022-12-02T12:57:35.832Z,0.88
2022-12-02T12:58:35.858Z,0.87
2022-12-02T12:59:35.884Z,0.86
2022-12-02T13:00:35.931Z,0.85
2022-12-02T13:01:36.019Z,0.86
2022-12-02T13:02:36.050Z,0.86
2022-12-02T13:03:36.005Z,0.87
2022-12-02T13:04:36.039Z,0.86
2022-12-02T13:05:36.099Z,0.85
2022-12-02T13:06:41.698Z,0.85
2022-12-02T13:07:36.199Z,0.85
2022-12-02T13:08:36.164Z,0.88
2022-12-02T13:09:36.195Z,0.87
2022-12-02T13:10:36.244Z,0.85
2022-12-02T13:11:36.301Z,0.84
2022-12-02T13:12:36.290Z,0.79
2022-12-02T13:13:36.306Z,0.8
2022-12-02T13:14:36.347Z,0.8
2022-12-02T13:15:36.382Z,0.8
2022-12-02T13:16:36.518Z,0.79
2022-12-02T13:17:36.434Z,0.76
2022-12-02T13:18:36.463Z,0.76
2022-12-02T13:19:36.497Z,0.74
2022-12-02T13:20:36.528Z,0.76
2022-12-02T13:21:36.572Z,0.76
2022-12-02T13:22:36.591Z,0.76
2022-12-02T13:23:36.620Z,0.78
2022-12-02T13:24:42.760Z,0.77
2022-12-02T13:25:36.678Z,0.77
2022-12-02T13:26:36.713Z,0.76
2022-12-02T13:27:36.735Z,0.75
2022-12-02T13:28:36.749Z,0.76
2022-12-02T13:29:36.779Z,0.76
2022-12-02T13:30:41.920Z,0.76
2022-12-02T13:31:36.933Z,0.76
2022-12-02T13:32:36.870Z,0.75
2022-12-02T13:33:36.891Z,0.74
2022-12-02T13:34:36.910Z,0.75
2022-12-02T13:35:36.926Z,0.72
2022-12-02T13:36:36.961Z,0.73
2022-12-02T13:37:37.037Z,0.74
2022-12-02T13:38:37.006Z,0.77